sensor_id;sensor_type;location;lat;lon;timestamp;temperature;humidity
9095;DHT22;4583;49.796;9.902;2023-07-31T00:05:47;20.30;67.50
9095;DHT22;4583;49.796;9.902;2023-07-31T00:15:49;20.30;67.80
9095;DHT22;4583;49.796;9.902;2023-07-31T00:25:51;20.30;68.20
9095;DHT22;4583;49.796;9.902;2023-07-31T00:35:52;20.20;68.20
9095;DHT22;4583;49.796;9.902;2023-07-31T00:45:54;20.10;69.10
9095;DHT22;4583;49.796;9.902;2023-07-31T00:55:56;20.00;69.70
9095;DHT22;4583;49.796;9.902;2023-07-31T01:06:19;20.00;70.20
9095;DHT22;4583;49.796;9.902;2023-07-31T01:16:25;19.90;70.60
9095;DHT22;4583;49.796;9.902;2023-07-31T01:26:34;19.80;71.20
9095;DHT22;4583;49.796;9.902;2023-07-31T01:36:38;19.70;71.70
9095;DHT22;4583;49.796;9.902;2023-07-31T01:46:40;19.60;72.30
9095;DHT22;4583;49.796;9.902;2023-07-31T01:56:42;19.60;72.80
9095;DHT22;4583;49.796;9.902;2023-07-31T02:06:44;19.60;73.30
9095;DHT22;4583;49.796;9.902;2023-07-31T02:16:45;19.60;73.70
9095;DHT22;4583;49.796;9.902;2023-07-31T02:26:47;19.50;74.10
9095;DHT22;4583;49.796;9.902;2023-07-31T02:36:49;19.40;74.70
9095;DHT22;4583;49.796;9.902;2023-07-31T02:46:51;19.40;75.30
9095;DHT22;4583;49.796;9.902;2023-07-31T02:56:52;19.30;75.80
9095;DHT22;4583;49.796;9.902;2023-07-31T03:06:54;19.30;76.30
9095;DHT22;4583;49.796;9.902;2023-07-31T03:16:56;19.20;76.50
9095;DHT22;4583;49.796;9.902;2023-07-31T03:26:57;19.20;77.20
9095;DHT22;4583;49.796;9.902;2023-07-31T03:36:59;19.30;77.50
9095;DHT22;4583;49.796;9.902;2023-07-31T03:47:01;19.20;77.70
9095;DHT22;4583;49.796;9.902;2023-07-31T03:57:03;19.30;78.00
9095;DHT22;4583;49.796;9.902;2023-07-31T04:07:05;19.20;78.40
9095;DHT22;4583;49.796;9.902;2023-07-31T04:17:07;19.20;78.60
9095;DHT22;4583;49.796;9.902;2023-07-31T04:27:13;19.20;78.80
9095;DHT22;4583;49.796;9.902;2023-07-31T04:37:14;19.20;79.10
9095;DHT22;4583;49.796;9.902;2023-07-31T04:47:16;19.10;79.30
9095;DHT22;4583;49.796;9.902;2023-07-31T04:57:18;19.20;79.40
9095;DHT22;4583;49.796;9.902;2023-07-31T05:07:19;19.30;79.20
9095;DHT22;4583;49.796;9.902;2023-07-31T05:17:21;19.50;79.20
9095;DHT22;4583;49.796;9.902;2023-07-31T05:27:23;19.60;79.20
9095;DHT22;4583;49.796;9.902;2023-07-31T05:37:26;19.60;79.10
9095;DHT22;4583;49.796;9.902;2023-07-31T05:47:29;19.60;79.10
9095;DHT22;4583;49.796;9.902;2023-07-31T05:57:31;19.60;79.00
9095;DHT22;4583;49.796;9.902;2023-07-31T06:07:33;19.70;78.80
9095;DHT22;4583;49.796;9.902;2023-07-31T06:17:34;19.90;78.30
9095;DHT22;4583;49.796;9.902;2023-07-31T06:27:36;20.00;77.90
9095;DHT22;4583;49.796;9.902;2023-07-31T06:37:38;19.90;77.70
9095;DHT22;4583;49.796;9.902;2023-07-31T06:47:42;19.90;77.60
9095;DHT22;4583;49.796;9.902;2023-07-31T06:57:43;20.10;77.70
9095;DHT22;4583;49.796;9.902;2023-07-31T07:07:45;20.10;77.50
9095;DHT22;4583;49.796;9.902;2023-07-31T07:17:47;20.30;77.10
9095;DHT22;4583;49.796;9.902;2023-07-31T07:27:49;20.50;76.80
9095;DHT22;4583;49.796;9.902;2023-07-31T07:37:50;20.60;76.60
9095;DHT22;4583;49.796;9.902;2023-07-31T07:47:53;20.60;76.60
9095;DHT22;4583;49.796;9.902;2023-07-31T07:57:55;20.90;76.30
9095;DHT22;4583;49.796;9.902;2023-07-31T08:07:57;21.30;75.70
9095;DHT22;4583;49.796;9.902;2023-07-31T08:17:59;21.30;75.60
9095;DHT22;4583;49.796;9.902;2023-07-31T08:28:01;21.20;75.70
9095;DHT22;4583;49.796;9.902;2023-07-31T08:38:03;21.10;75.90
9095;DHT22;4583;49.796;9.902;2023-07-31T08:48:05;21.40;75.90
9095;DHT22;4583;49.796;9.902;2023-07-31T08:58:07;21.60;75.40
9095;DHT22;4583;49.796;9.902;2023-07-31T09:08:10;21.80;75.10
9095;DHT22;4583;49.796;9.902;2023-07-31T09:18:13;22.00;74.80
9095;DHT22;4583;49.796;9.902;2023-07-31T09:28:18;22.00;74.20
9095;DHT22;4583;49.796;9.902;2023-07-31T09:38:20;22.10;74.50
9095;DHT22;4583;49.796;9.902;2023-07-31T09:48:24;22.40;74.00
9095;DHT22;4583;49.796;9.902;2023-07-31T09:58:29;22.50;73.50
9095;DHT22;4583;49.796;9.902;2023-07-31T10:08:33;22.40;72.40
9095;DHT22;4583;49.796;9.902;2023-07-31T10:18:38;22.50;72.20
9095;DHT22;4583;49.796;9.902;2023-07-31T10:28:41;22.30;72.00
9095;DHT22;4583;49.796;9.902;2023-07-31T10:38:44;22.30;72.50
9095;DHT22;4583;49.796;9.902;2023-07-31T10:49:00;22.30;72.20
9095;DHT22;4583;49.796;9.902;2023-07-31T10:59:02;22.50;71.90
9095;DHT22;4583;49.796;9.902;2023-07-31T11:09:05;22.60;71.50
9095;DHT22;4583;49.796;9.902;2023-07-31T11:19:08;22.90;70.70
9095;DHT22;4583;49.796;9.902;2023-07-31T11:29:13;23.00;70.30
9095;DHT22;4583;49.796;9.902;2023-07-31T11:39:15;23.00;69.00
9095;DHT22;4583;49.796;9.902;2023-07-31T11:49:17;23.10;68.30
9095;DHT22;4583;49.796;9.902;2023-07-31T11:59:18;23.20;67.50
9095;DHT22;4583;49.796;9.902;2023-07-31T12:09:20;23.40;66.30
9095;DHT22;4583;49.796;9.902;2023-07-31T12:19:23;23.70;65.50
9095;DHT22;4583;49.796;9.902;2023-07-31T12:29:35;24.00;65.00
9095;DHT22;4583;49.796;9.902;2023-07-31T12:39:43;24.40;63.80
9095;DHT22;4583;49.796;9.902;2023-07-31T12:49:44;24.70;63.00
9095;DHT22;4583;49.796;9.902;2023-07-31T12:59:46;24.60;62.20
9095;DHT22;4583;49.796;9.902;2023-07-31T13:09:48;24.00;63.20
9095;DHT22;4583;49.796;9.902;2023-07-31T13:19:50;23.80;66.30
9095;DHT22;4583;49.796;9.902;2023-07-31T13:29:52;24.10;66.80
9095;DHT22;4583;49.796;9.902;2023-07-31T13:39:53;24.20;66.00
9095;DHT22;4583;49.796;9.902;2023-07-31T13:49:55;24.20;64.80
9095;DHT22;4583;49.796;9.902;2023-07-31T13:59:57;24.30;63.70
9095;DHT22;4583;49.796;9.902;2023-07-31T14:09:59;24.20;63.30
9095;DHT22;4583;49.796;9.902;2023-07-31T14:20:01;24.10;63.30
9095;DHT22;4583;49.796;9.902;2023-07-31T14:30:05;23.90;63.60
9095;DHT22;4583;49.796;9.902;2023-07-31T14:40:08;23.90;64.10
9095;DHT22;4583;49.796;9.902;2023-07-31T14:50:10;23.90;64.30
9095;DHT22;4583;49.796;9.902;2023-07-31T15:00:12;23.70;64.60
9095;DHT22;4583;49.796;9.902;2023-07-31T15:10:14;23.60;65.40
9095;DHT22;4583;49.796;9.902;2023-07-31T15:20:16;23.70;65.70
9095;DHT22;4583;49.796;9.902;2023-07-31T15:30:18;23.80;66.70
9095;DHT22;4583;49.796;9.902;2023-07-31T15:40:19;23.80;66.40
9095;DHT22;4583;49.796;9.902;2023-07-31T15:50:21;23.70;67.10
9095;DHT22;4583;49.796;9.902;2023-07-31T16:00:23;23.40;67.80
9095;DHT22;4583;49.796;9.902;2023-07-31T16:10:25;23.30;68.20
9095;DHT22;4583;49.796;9.902;2023-07-31T16:20:27;23.30;68.70
9095;DHT22;4583;49.796;9.902;2023-07-31T16:30:29;23.00;69.30
9095;DHT22;4583;49.796;9.902;2023-07-31T16:40:31;22.90;69.80
9095;DHT22;4583;49.796;9.902;2023-07-31T16:50:33;22.80;70.00
9095;DHT22;4583;49.796;9.902;2023-07-31T17:00:34;22.70;70.50
9095;DHT22;4583;49.796;9.902;2023-07-31T17:10:36;22.70;71.00
9095;DHT22;4583;49.796;9.902;2023-07-31T17:20:38;22.50;71.60
9095;DHT22;4583;49.796;9.902;2023-07-31T17:30:40;22.50;71.90
9095;DHT22;4583;49.796;9.902;2023-07-31T17:40:41;22.50;72.40
9095;DHT22;4583;49.796;9.902;2023-07-31T17:50:51;22.50;72.90
9095;DHT22;4583;49.796;9.902;2023-07-31T18:00:53;22.40;73.40
9095;DHT22;4583;49.796;9.902;2023-07-31T18:10:56;22.40;73.80
9095;DHT22;4583;49.796;9.902;2023-07-31T18:20:58;22.30;74.50
9095;DHT22;4583;49.796;9.902;2023-07-31T18:31:01;22.30;75.50
9095;DHT22;4583;49.796;9.902;2023-07-31T18:41:06;22.20;76.30
9095;DHT22;4583;49.796;9.902;2023-07-31T18:51:08;22.20;76.90
9095;DHT22;4583;49.796;9.902;2023-07-31T19:01:10;22.10;77.50
9095;DHT22;4583;49.796;9.902;2023-07-31T19:11:12;22.00;78.40
9095;DHT22;4583;49.796;9.902;2023-07-31T19:21:29;21.90;79.30
9095;DHT22;4583;49.796;9.902;2023-07-31T19:31:30;21.60;81.20
9095;DHT22;4583;49.796;9.902;2023-07-31T19:41:32;21.30;83.50
9095;DHT22;4583;49.796;9.902;2023-07-31T19:51:34;21.20;85.20
9095;DHT22;4583;49.796;9.902;2023-07-31T20:01:36;21.00;87.10
9095;DHT22;4583;49.796;9.902;2023-07-31T20:11:38;20.90;89.60
9095;DHT22;4583;49.796;9.902;2023-07-31T20:21:39;20.80;90.30
9095;DHT22;4583;49.796;9.902;2023-07-31T20:31:43;20.70;91.00
9095;DHT22;4583;49.796;9.902;2023-07-31T20:41:45;20.60;91.80
9095;DHT22;4583;49.796;9.902;2023-07-31T20:51:47;20.50;92.40
9095;DHT22;4583;49.796;9.902;2023-07-31T21:01:49;20.50;93.10
9095;DHT22;4583;49.796;9.902;2023-07-31T21:11:51;20.40;93.50
9095;DHT22;4583;49.796;9.902;2023-07-31T21:21:53;20.40;93.80
9095;DHT22;4583;49.796;9.902;2023-07-31T21:31:55;20.40;94.40
9095;DHT22;4583;49.796;9.902;2023-07-31T21:41:58;20.40;94.30
9095;DHT22;4583;49.796;9.902;2023-07-31T21:52:00;20.30;94.50
9095;DHT22;4583;49.796;9.902;2023-07-31T22:02:01;20.30;95.10
9095;DHT22;4583;49.796;9.902;2023-07-31T22:12:04;20.20;95.50
9095;DHT22;4583;49.796;9.902;2023-07-31T22:22:06;20.10;95.90
9095;DHT22;4583;49.796;9.902;2023-07-31T22:32:08;20.10;96.40
9095;DHT22;4583;49.796;9.902;2023-07-31T22:42:10;20.00;96.90
9095;DHT22;4583;49.796;9.902;2023-07-31T22:52:12;19.90;97.40
9095;DHT22;4583;49.796;9.902;2023-07-31T23:02:14;19.90;98.10
9095;DHT22;4583;49.796;9.902;2023-07-31T23:12:15;19.80;98.70
9095;DHT22;4583;49.796;9.902;2023-07-31T23:22:17;19.70;99.40
9095;DHT22;4583;49.796;9.902;2023-07-31T23:32:19;19.70;99.90
9095;DHT22;4583;49.796;9.902;2023-07-31T23:42:21;19.60;99.90
9095;DHT22;4583;49.796;9.902;2023-07-31T23:52:22;19.60;99.90
